sensor_id;sensor_type;location;lat;lon;timestamp;temperature;humidity
25058;DHT22;13057;50.978;11.034;2022-11-20T00:02:23;-2.00;99.90
25058;DHT22;13057;50.978;11.034;2022-11-20T00:04:49;-2.10;99.90
25058;DHT22;13057;50.978;11.034;2022-11-20T00:07:15;-2.10;99.90
25058;DHT22;13057;50.978;11.034;2022-11-20T00:09:41;-2.20;99.90
25058;DHT22;13057;50.978;11.034;2022-11-20T00:12:06;-2.30;99.90
25058;DHT22;13057;50.978;11.034;2022-11-20T00:14:33;-2.30;99.90
25058;DHT22;13057;50.978;11.034;2022-11-20T00:16:58;-2.30;99.90
25058;DHT22;13057;50.978;11.034;2022-11-20T00:19:24;-2.40;99.90
25058;DHT22;13057;50.978;11.034;2022-11-20T00:21:53;-2.40;99.90
25058;DHT22;13057;50.978;11.034;2022-11-20T00:24:21;-2.40;99.90
25058;DHT22;13057;50.978;11.034;2022-11-20T00:26:46;-2.40;99.90
25058;DHT22;13057;50.978;11.034;2022-11-20T00:29:12;-2.40;99.90
25058;DHT22;13057;50.978;11.034;2022-11-20T00:31:38;-2.60;99.90
25058;DHT22;13057;50.978;11.034;2022-11-20T00:34:04;-2.70;99.90
25058;DHT22;13057;50.978;11.034;2022-11-20T00:36:33;-2.70;99.90
25058;DHT22;13057;50.978;11.034;2022-11-20T00:38:59;-2.70;99.90
25058;DHT22;13057;50.978;11.034;2022-11-20T00:41:26;-2.70;99.90
25058;DHT22;13057;50.978;11.034;2022-11-20T00:43:54;-2.70;99.90
25058;DHT22;13057;50.978;11.034;2022-11-20T00:46:22;-2.80;99.90
25058;DHT22;13057;50.978;11.034;2022-11-20T00:48:48;-2.80;99.90
25058;DHT22;13057;50.978;11.034;2022-11-20T00:51:18;-2.80;99.90
25058;DHT22;13057;50.978;11.034;2022-11-20T00:53:45;-2.80;99.90
25058;DHT22;13057;50.978;11.034;2022-11-20T00:56:13;-2.90;99.90
25058;DHT22;13057;50.978;11.034;2022-11-20T00:58:40;-2.90;99.90
25058;DHT22;13057;50.978;11.034;2022-11-20T01:01:13;-2.90;99.90
25058;DHT22;13057;50.978;11.034;2022-11-20T01:03:41;-3.00;99.90
25058;DHT22;13057;50.978;11.034;2022-11-20T01:06:11;-3.00;99.90
25058;DHT22;13057;50.978;11.034;2022-11-20T01:08:37;-3.00;99.90
25058;DHT22;13057;50.978;11.034;2022-11-20T01:11:07;-3.00;99.90
25058;DHT22;13057;50.978;11.034;2022-11-20T01:13:33;-3.10;99.90
25058;DHT22;13057;50.978;11.034;2022-11-20T01:16:07;-3.10;99.90
25058;DHT22;13057;50.978;11.034;2022-11-20T01:18:35;-3.10;99.90
25058;DHT22;13057;50.978;11.034;2022-11-20T01:21:03;-3.10;99.90
25058;DHT22;13057;50.978;11.034;2022-11-20T01:23:32;-3.10;99.90
25058;DHT22;13057;50.978;11.034;2022-11-20T01:26:01;-3.10;99.90
25058;DHT22;13057;50.978;11.034;2022-11-20T01:28:29;-3.20;99.90
25058;DHT22;13057;50.978;11.034;2022-11-20T01:30:55;-3.10;99.90
25058;DHT22;13057;50.978;11.034;2022-11-20T01:33:21;-3.20;99.90
25058;DHT22;13057;50.978;11.034;2022-11-20T01:35:46;-3.20;99.90
25058;DHT22;13057;50.978;11.034;2022-11-20T01:38:12;-3.30;99.90
25058;DHT22;13057;50.978;11.034;2022-11-20T01:40:38;-3.30;99.90
25058;DHT22;13057;50.978;11.034;2022-11-20T01:43:14;-3.30;99.90
25058;DHT22;13057;50.978;11.034;2022-11-20T01:46:03;-3.40;99.90
25058;DHT22;13057;50.978;11.034;2022-11-20T01:48:38;-3.30;99.90
25058;DHT22;13057;50.978;11.034;2022-11-20T01:51:17;-3.40;99.90
25058;DHT22;13057;50.978;11.034;2022-11-20T01:53:45;-3.40;99.90
25058;DHT22;13057;50.978;11.034;2022-11-20T01:56:13;-3.30;99.90
25058;DHT22;13057;50.978;11.034;2022-11-20T01:58:46;-3.30;99.90
25058;DHT22;13057;50.978;11.034;2022-11-20T02:01:13;-3.30;99.90
25058;DHT22;13057;50.978;11.034;2022-11-20T02:03:40;-3.30;99.90
25058;DHT22;13057;50.978;11.034;2022-11-20T02:06:18;-3.40;99.90
25058;DHT22;13057;50.978;11.034;2022-11-20T02:08:45;-3.40;99.90
25058;DHT22;13057;50.978;11.034;2022-11-20T02:11:11;-3.40;99.90
25058;DHT22;13057;50.978;11.034;2022-11-20T02:13:38;-3.40;99.90
25058;DHT22;13057;50.978;11.034;2022-11-20T02:16:11;-3.40;99.90
25058;DHT22;13057;50.978;11.034;2022-11-20T02:18:39;-3.40;99.90
25058;DHT22;13057;50.978;11.034;2022-11-20T02:21:12;-3.40;99.90
25058;DHT22;13057;50.978;11.034;2022-11-20T02:26:22;-3.40;99.90
25058;DHT22;13057;50.978;11.034;2022-11-20T02:28:49;-3.50;99.90
25058;DHT22;13057;50.978;11.034;2022-11-20T02:31:15;-3.50;99.90
25058;DHT22;13057;50.978;11.034;2022-11-20T02:33:41;-3.50;99.90
25058;DHT22;13057;50.978;11.034;2022-11-20T02:36:09;-3.50;99.90
25058;DHT22;13057;50.978;11.034;2022-11-20T02:38:36;-3.40;99.90
25058;DHT22;13057;50.978;11.034;2022-11-20T02:41:02;-3.30;99.90
25058;DHT22;13057;50.978;11.034;2022-11-20T02:43:28;-3.40;99.90
25058;DHT22;13057;50.978;11.034;2022-11-20T02:45:54;-3.50;99.90
25058;DHT22;13057;50.978;11.034;2022-11-20T02:48:20;-3.50;99.90
25058;DHT22;13057;50.978;11.034;2022-11-20T02:50:46;-3.50;99.90
25058;DHT22;13057;50.978;11.034;2022-11-20T02:53:12;-3.50;99.90
25058;DHT22;13057;50.978;11.034;2022-11-20T02:55:37;-3.60;99.90
25058;DHT22;13057;50.978;11.034;2022-11-20T02:58:03;-3.60;99.90
25058;DHT22;13057;50.978;11.034;2022-11-20T03:00:29;-3.60;99.90
25058;DHT22;13057;50.978;11.034;2022-11-20T03:02:55;-3.60;99.90
25058;DHT22;13057;50.978;11.034;2022-11-20T03:05:20;-3.60;99.90
25058;DHT22;13057;50.978;11.034;2022-11-20T03:07:47;-3.60;99.90
25058;DHT22;13057;50.978;11.034;2022-11-20T03:10:12;-3.60;99.90
25058;DHT22;13057;50.978;11.034;2022-11-20T03:12:38;-3.60;99.90
25058;DHT22;13057;50.978;11.034;2022-11-20T03:15:04;-3.60;99.90
25058;DHT22;13057;50.978;11.034;2022-11-20T03:17:30;-3.70;99.90
25058;DHT22;13057;50.978;11.034;2022-11-20T03:19:56;-3.70;99.90
25058;DHT22;13057;50.978;11.034;2022-11-20T03:22:22;-3.70;99.90
25058;DHT22;13057;50.978;11.034;2022-11-20T03:24:48;-3.60;99.90
25058;DHT22;13057;50.978;11.034;2022-11-20T03:27:14;-3.70;99.90
25058;DHT22;13057;50.978;11.034;2022-11-20T03:29:39;-3.80;99.90
25058;DHT22;13057;50.978;11.034;2022-11-20T03:32:05;-3.80;99.90
25058;DHT22;13057;50.978;11.034;2022-11-20T03:34:31;-3.70;99.90
25058;DHT22;13057;50.978;11.034;2022-11-20T03:36:57;-3.80;99.90
25058;DHT22;13057;50.978;11.034;2022-11-20T03:39:23;-3.70;99.90
25058;DHT22;13057;50.978;11.034;2022-11-20T03:41:49;-3.80;99.90
25058;DHT22;13057;50.978;11.034;2022-11-20T03:44:14;-3.80;99.90
25058;DHT22;13057;50.978;11.034;2022-11-20T03:46:40;-3.80;99.90
25058;DHT22;13057;50.978;11.034;2022-11-20T03:49:06;-3.80;99.90
25058;DHT22;13057;50.978;11.034;2022-11-20T03:51:34;-3.90;99.90
25058;DHT22;13057;50.978;11.034;2022-11-20T03:54:04;-3.80;99.90
25058;DHT22;13057;50.978;11.034;2022-11-20T03:56:32;-3.90;99.90
25058;DHT22;13057;50.978;11.034;2022-11-20T03:58:58;-3.90;99.90
25058;DHT22;13057;50.978;11.034;2022-11-20T04:01:28;-3.90;99.90
25058;DHT22;13057;50.978;11.034;2022-11-20T04:03:56;-3.90;99.90
25058;DHT22;13057;50.978;11.034;2022-11-20T04:06:24;-3.90;99.90
25058;DHT22;13057;50.978;11.034;2022-11-20T04:08:50;-3.90;99.90
25058;DHT22;13057;50.978;11.034;2022-11-20T04:11:19;-4.00;99.90
25058;DHT22;13057;50.978;11.034;2022-11-20T04:13:48;-4.00;99.90
25058;DHT22;13057;50.978;11.034;2022-11-20T04:16:15;-4.00;99.90
25058;DHT22;13057;50.978;11.034;2022-11-20T04:18:41;-4.00;99.90
25058;DHT22;13057;50.978;11.034;2022-11-20T04:21:07;-4.00;99.90
25058;DHT22;13057;50.978;11.034;2022-11-20T04:23:33;-4.00;99.90
25058;DHT22;13057;50.978;11.034;2022-11-20T04:26:06;-4.10;99.90
25058;DHT22;13057;50.978;11.034;2022-11-20T04:28:32;-4.00;99.90
25058;DHT22;13057;50.978;11.034;2022-11-20T04:31:06;-4.00;99.90
25058;DHT22;13057;50.978;11.034;2022-11-20T04:33:33;-4.00;99.90
25058;DHT22;13057;50.978;11.034;2022-11-20T04:36:03;-4.00;99.90
25058;DHT22;13057;50.978;11.034;2022-11-20T04:38:29;-4.00;99.90
25058;DHT22;13057;50.978;11.034;2022-11-20T04:40:57;-4.10;99.90
25058;DHT22;13057;50.978;11.034;2022-11-20T04:43:23;-4.20;99.90
25058;DHT22;13057;50.978;11.034;2022-11-20T04:45:55;-4.20;99.90
25058;DHT22;13057;50.978;11.034;2022-11-20T04:48:21;-4.10;99.90
25058;DHT22;13057;50.978;11.034;2022-11-20T04:50:47;-4.10;99.90
25058;DHT22;13057;50.978;11.034;2022-11-20T04:53:13;-4.20;99.90
25058;DHT22;13057;50.978;11.034;2022-11-20T04:55:39;-4.20;99.90
25058;DHT22;13057;50.978;11.034;2022-11-20T04:58:05;-4.10;99.90
25058;DHT22;13057;50.978;11.034;2022-11-20T05:00:31;-4.10;99.90
25058;DHT22;13057;50.978;11.034;2022-11-20T05:02:57;-4.10;99.90
25058;DHT22;13057;50.978;11.034;2022-11-20T05:05:23;-4.00;99.90
25058;DHT22;13057;50.978;11.034;2022-11-20T05:07:49;-4.00;99.90
25058;DHT22;13057;50.978;11.034;2022-11-20T05:10:15;-4.10;99.90
25058;DHT22;13057;50.978;11.034;2022-11-20T05:12:41;-3.90;99.90
25058;DHT22;13057;50.978;11.034;2022-11-20T05:15:07;-4.00;99.90
25058;DHT22;13057;50.978;11.034;2022-11-20T05:17:33;-4.00;99.90
25058;DHT22;13057;50.978;11.034;2022-11-20T05:19:59;-4.00;99.90
25058;DHT22;13057;50.978;11.034;2022-11-20T05:22:25;-4.10;99.90
25058;DHT22;13057;50.978;11.034;2022-11-20T05:24:51;-4.00;99.90
25058;DHT22;13057;50.978;11.034;2022-11-20T05:27:17;-3.90;99.90
25058;DHT22;13057;50.978;11.034;2022-11-20T05:29:43;-3.80;99.90
25058;DHT22;13057;50.978;11.034;2022-11-20T05:32:09;-3.70;99.90
25058;DHT22;13057;50.978;11.034;2022-11-20T05:34:35;-3.70;99.90
25058;DHT22;13057;50.978;11.034;2022-11-20T05:37:02;-3.60;99.90
25058;DHT22;13057;50.978;11.034;2022-11-20T05:39:28;-3.60;99.90
25058;DHT22;13057;50.978;11.034;2022-11-20T05:41:54;-3.60;99.90
25058;DHT22;13057;50.978;11.034;2022-11-20T05:44:32;-3.40;99.90
25058;DHT22;13057;50.978;11.034;2022-11-20T05:46:57;-3.30;99.90
25058;DHT22;13057;50.978;11.034;2022-11-20T05:49:23;-3.10;99.90
25058;DHT22;13057;50.978;11.034;2022-11-20T05:51:49;-3.30;99.90
25058;DHT22;13057;50.978;11.034;2022-11-20T05:54:15;-3.40;99.90
25058;DHT22;13057;50.978;11.034;2022-11-20T05:56:41;-3.40;99.90
25058;DHT22;13057;50.978;11.034;2022-11-20T05:59:07;-3.30;99.90
25058;DHT22;13057;50.978;11.034;2022-11-20T06:01:33;-3.30;99.90
25058;DHT22;13057;50.978;11.034;2022-11-20T06:03:59;-3.20;99.90
25058;DHT22;13057;50.978;11.034;2022-11-20T06:06:24;-3.20;99.90
25058;DHT22;13057;50.978;11.034;2022-11-20T06:08:51;-3.10;99.90
25058;DHT22;13057;50.978;11.034;2022-11-20T06:11:17;-3.10;99.90
25058;DHT22;13057;50.978;11.034;2022-11-20T06:13:44;-3.20;99.90
25058;DHT22;13057;50.978;11.034;2022-11-20T06:16:11;-3.20;99.90
25058;DHT22;13057;50.978;11.034;2022-11-20T06:18:38;-3.00;99.90
25058;DHT22;13057;50.978;11.034;2022-11-20T06:21:07;-3.10;99.90
25058;DHT22;13057;50.978;11.034;2022-11-20T06:23:34;-3.20;99.90
25058;DHT22;13057;50.978;11.034;2022-11-20T06:26:04;-3.10;99.90
25058;DHT22;13057;50.978;11.034;2022-11-20T06:28:30;-3.10;99.90
25058;DHT22;13057;50.978;11.034;2022-11-20T06:30:57;-3.10;99.90
25058;DHT22;13057;50.978;11.034;2022-11-20T06:33:23;-3.10;99.90
25058;DHT22;13057;50.978;11.034;2022-11-20T06:35:49;-3.10;99.90
25058;DHT22;13057;50.978;11.034;2022-11-20T06:38:15;-3.10;99.90
25058;DHT22;13057;50.978;11.034;2022-11-20T06:40:41;-3.10;99.90
25058;DHT22;13057;50.978;11.034;2022-11-20T06:43:09;-3.10;99.90
25058;DHT22;13057;50.978;11.034;2022-11-20T06:45:36;-3.10;99.90
25058;DHT22;13057;50.978;11.034;2022-11-20T06:48:02;-3.10;99.90
25058;DHT22;13057;50.978;11.034;2022-11-20T06:50:28;-3.10;99.90
25058;DHT22;13057;50.978;11.034;2022-11-20T06:52:54;-3.10;99.90
25058;DHT22;13057;50.978;11.034;2022-11-20T06:55:20;-3.10;99.90
25058;DHT22;13057;50.978;11.034;2022-11-20T06:57:45;-3.00;99.90
25058;DHT22;13057;50.978;11.034;2022-11-20T07:00:11;-3.00;99.90
25058;DHT22;13057;50.978;11.034;2022-11-20T07:02:37;-3.00;99.90
25058;DHT22;13057;50.978;11.034;2022-11-20T07:05:03;-2.90;99.90
25058;DHT22;13057;50.978;11.034;2022-11-20T07:07:30;-2.80;99.90
25058;DHT22;13057;50.978;11.034;2022-11-20T07:09:56;-2.60;99.90
25058;DHT22;13057;50.978;11.034;2022-11-20T07:12:21;-2.60;99.90
25058;DHT22;13057;50.978;11.034;2022-11-20T07:14:47;-2.50;99.90
25058;DHT22;13057;50.978;11.034;2022-11-20T07:17:13;-2.50;99.90
25058;DHT22;13057;50.978;11.034;2022-11-20T07:19:39;-2.50;99.90
25058;DHT22;13057;50.978;11.034;2022-11-20T07:22:05;-2.40;99.90
25058;DHT22;13057;50.978;11.034;2022-11-20T07:24:31;-2.40;99.90
25058;DHT22;13057;50.978;11.034;2022-11-20T07:26:56;-2.50;99.90
25058;DHT22;13057;50.978;11.034;2022-11-20T07:29:22;-2.50;99.90
25058;DHT22;13057;50.978;11.034;2022-11-20T07:31:48;-2.50;99.90
25058;DHT22;13057;50.978;11.034;2022-11-20T07:34:14;-2.40;99.90
25058;DHT22;13057;50.978;11.034;2022-11-20T07:36:40;-2.50;99.90
25058;DHT22;13057;50.978;11.034;2022-11-20T07:39:05;-2.50;99.90
25058;DHT22;13057;50.978;11.034;2022-11-20T07:41:31;-2.40;99.90
25058;DHT22;13057;50.978;11.034;2022-11-20T07:43:57;-2.40;99.90
25058;DHT22;13057;50.978;11.034;2022-11-20T07:46:23;-2.40;99.90
25058;DHT22;13057;50.978;11.034;2022-11-20T07:48:49;-2.40;99.90
25058;DHT22;13057;50.978;11.034;2022-11-20T07:51:14;-2.20;99.90
25058;DHT22;13057;50.978;11.034;2022-11-20T07:53:41;-2.10;99.90
25058;DHT22;13057;50.978;11.034;2022-11-20T07:56:06;-2.00;99.90
25058;DHT22;13057;50.978;11.034;2022-11-20T07:58:32;-2.00;99.90
25058;DHT22;13057;50.978;11.034;2022-11-20T08:01:05;-1.90;99.90
25058;DHT22;13057;50.978;11.034;2022-11-20T08:03:35;-1.90;99.90
25058;DHT22;13057;50.978;11.034;2022-11-20T08:06:03;-1.80;99.90
25058;DHT22;13057;50.978;11.034;2022-11-20T08:08:29;-1.70;99.90
25058;DHT22;13057;50.978;11.034;2022-11-20T08:10:57;-1.80;99.90
25058;DHT22;13057;50.978;11.034;2022-11-20T08:13:43;-1.60;99.90
25058;DHT22;13057;50.978;11.034;2022-11-20T08:16:21;-1.60;99.90
25058;DHT22;13057;50.978;11.034;2022-11-20T08:18:47;-1.60;99.90
25058;DHT22;13057;50.978;11.034;2022-11-20T08:21:12;-1.60;99.90
25058;DHT22;13057;50.978;11.034;2022-11-20T08:23:38;-1.50;99.90
25058;DHT22;13057;50.978;11.034;2022-11-20T08:26:04;-1.50;99.90
25058;DHT22;13057;50.978;11.034;2022-11-20T08:28:30;-1.50;99.90
25058;DHT22;13057;50.978;11.034;2022-11-20T08:31:00;-1.50;99.90
25058;DHT22;13057;50.978;11.034;2022-11-20T08:33:26;-1.50;99.90
25058;DHT22;13057;50.978;11.034;2022-11-20T08:35:52;-1.40;99.90
25058;DHT22;13057;50.978;11.034;2022-11-20T08:38:18;-1.30;99.90
25058;DHT22;13057;50.978;11.034;2022-11-20T08:40:44;-1.40;99.90
25058;DHT22;13057;50.978;11.034;2022-11-20T08:43:30;-1.40;99.90
25058;DHT22;13057;50.978;11.034;2022-11-20T08:45:56;-1.40;99.90
25058;DHT22;13057;50.978;11.034;2022-11-20T08:48:23;-1.40;99.90
25058;DHT22;13057;50.978;11.034;2022-11-20T08:50:49;-1.40;99.90
25058;DHT22;13057;50.978;11.034;2022-11-20T08:53:14;-1.40;99.90
25058;DHT22;13057;50.978;11.034;2022-11-20T08:55:40;-1.30;99.90
25058;DHT22;13057;50.978;11.034;2022-11-20T08:58:06;-1.10;99.90
25058;DHT22;13057;50.978;11.034;2022-11-20T09:00:33;-1.10;99.90
25058;DHT22;13057;50.978;11.034;2022-11-20T09:02:59;-1.10;99.90
25058;DHT22;13057;50.978;11.034;2022-11-20T09:05:27;-1.10;99.90
25058;DHT22;13057;50.978;11.034;2022-11-20T09:07:56;-1.10;99.90
25058;DHT22;13057;50.978;11.034;2022-11-20T09:10:22;-1.00;99.90
25058;DHT22;13057;50.978;11.034;2022-11-20T09:12:49;-1.00;99.90
25058;DHT22;13057;50.978;11.034;2022-11-20T09:15:16;-0.90;99.90
25058;DHT22;13057;50.978;11.034;2022-11-20T09:17:55;-0.90;99.90
25058;DHT22;13057;50.978;11.034;2022-11-20T09:20:22;-0.80;99.90
25058;DHT22;13057;50.978;11.034;2022-11-20T09:22:48;-0.80;99.90
25058;DHT22;13057;50.978;11.034;2022-11-20T09:25:14;-0.60;99.90
25058;DHT22;13057;50.978;11.034;2022-11-20T09:27:40;-0.50;99.90
25058;DHT22;13057;50.978;11.034;2022-11-20T09:30:09;-0.50;99.90
25058;DHT22;13057;50.978;11.034;2022-11-20T09:32:35;-0.60;99.90
25058;DHT22;13057;50.978;11.034;2022-11-20T09:35:01;-0.50;99.90
25058;DHT22;13057;50.978;11.034;2022-11-20T09:37:27;-0.50;99.90
25058;DHT22;13057;50.978;11.034;2022-11-20T09:39:53;-0.50;99.90
25058;DHT22;13057;50.978;11.034;2022-11-20T09:42:32;-0.50;99.90
25058;DHT22;13057;50.978;11.034;2022-11-20T09:45:23;-0.40;99.90
25058;DHT22;13057;50.978;11.034;2022-11-20T09:48:12;-0.40;99.90
25058;DHT22;13057;50.978;11.034;2022-11-20T09:50:57;-0.40;99.90
25058;DHT22;13057;50.978;11.034;2022-11-20T09:53:45;-0.30;99.90
25058;DHT22;13057;50.978;11.034;2022-11-20T09:56:11;-0.10;99.90
25058;DHT22;13057;50.978;11.034;2022-11-20T09:58:44;-0.10;99.90
25058;DHT22;13057;50.978;11.034;2022-11-20T10:01:16;0.00;99.90
25058;DHT22;13057;50.978;11.034;2022-11-20T10:03:58;-0.10;99.90
25058;DHT22;13057;50.978;11.034;2022-11-20T10:06:33;0.00;99.90
25058;DHT22;13057;50.978;11.034;2022-11-20T10:09:14;0.10;99.90
25058;DHT22;13057;50.978;11.034;2022-11-20T10:12:03;0.00;99.90
25058;DHT22;13057;50.978;11.034;2022-11-20T10:17:52;0.30;99.90
25058;DHT22;13057;50.978;11.034;2022-11-20T10:20:40;0.20;99.90
25058;DHT22;13057;50.978;11.034;2022-11-20T10:23:23;0.40;99.90
25058;DHT22;13057;50.978;11.034;2022-11-20T10:26:02;0.30;99.90
25058;DHT22;13057;50.978;11.034;2022-11-20T10:28:46;0.30;99.90
25058;DHT22;13057;50.978;11.034;2022-11-20T10:31:25;0.30;99.90
25058;DHT22;13057;50.978;11.034;2022-11-20T10:33:53;0.60;99.90
25058;DHT22;13057;50.978;11.034;2022-11-20T10:36:27;0.70;99.90
25058;DHT22;13057;50.978;11.034;2022-11-20T10:39:06;0.80;99.90
25058;DHT22;13057;50.978;11.034;2022-11-20T10:41:41;0.80;99.90
25058;DHT22;13057;50.978;11.034;2022-11-20T10:44:14;0.70;99.90
25058;DHT22;13057;50.978;11.034;2022-11-20T10:47:04;0.70;99.90
25058;DHT22;13057;50.978;11.034;2022-11-20T10:49:31;0.60;99.90
25058;DHT22;13057;50.978;11.034;2022-11-20T10:52:24;0.70;99.90
25058;DHT22;13057;50.978;11.034;2022-11-20T10:55:13;0.70;99.90
25058;DHT22;13057;50.978;11.034;2022-11-20T10:57:52;0.60;99.90
25058;DHT22;13057;50.978;11.034;2022-11-20T11:00:21;0.70;99.90
25058;DHT22;13057;50.978;11.034;2022-11-20T11:02:49;0.70;99.90
25058;DHT22;13057;50.978;11.034;2022-11-20T11:05:34;0.70;99.90
25058;DHT22;13057;50.978;11.034;2022-11-20T11:08:03;0.80;99.90
25058;DHT22;13057;50.978;11.034;2022-11-20T11:10:57;0.70;99.90
25058;DHT22;13057;50.978;11.034;2022-11-20T11:13:27;0.60;99.90
25058;DHT22;13057;50.978;11.034;2022-11-20T11:15:53;0.70;99.90
25058;DHT22;13057;50.978;11.034;2022-11-20T11:18:26;0.80;99.90
25058;DHT22;13057;50.978;11.034;2022-11-20T11:20:54;0.80;99.90
25058;DHT22;13057;50.978;11.034;2022-11-20T11:23:34;0.80;99.90
25058;DHT22;13057;50.978;11.034;2022-11-20T11:26:04;0.80;99.90
25058;DHT22;13057;50.978;11.034;2022-11-20T11:28:30;0.80;99.90
25058;DHT22;13057;50.978;11.034;2022-11-20T11:30:57;0.80;99.90
25058;DHT22;13057;50.978;11.034;2022-11-20T11:33:27;0.90;99.90
25058;DHT22;13057;50.978;11.034;2022-11-20T11:35:56;0.90;99.90
25058;DHT22;13057;50.978;11.034;2022-11-20T11:38:36;1.00;99.90
25058;DHT22;13057;50.978;11.034;2022-11-20T11:41:04;0.90;99.90
25058;DHT22;13057;50.978;11.034;2022-11-20T11:43:33;0.90;99.90
25058;DHT22;13057;50.978;11.034;2022-11-20T11:46:32;1.00;99.90
25058;DHT22;13057;50.978;11.034;2022-11-20T11:51:58;1.10;99.90
25058;DHT22;13057;50.978;11.034;2022-11-20T11:54:37;1.20;99.90
25058;DHT22;13057;50.978;11.034;2022-11-20T11:57:12;1.20;99.90
25058;DHT22;13057;50.978;11.034;2022-11-20T11:59:54;1.20;99.90
25058;DHT22;13057;50.978;11.034;2022-11-20T12:02:31;1.40;99.90
25058;DHT22;13057;50.978;11.034;2022-11-20T12:05:14;1.40;99.90
25058;DHT22;13057;50.978;11.034;2022-11-20T12:07:47;1.40;99.90
25058;DHT22;13057;50.978;11.034;2022-11-20T12:10:22;1.40;99.90
25058;DHT22;13057;50.978;11.034;2022-11-20T12:12:54;1.50;99.90
25058;DHT22;13057;50.978;11.034;2022-11-20T12:15:30;1.50;99.90
25058;DHT22;13057;50.978;11.034;2022-11-20T12:17:56;1.50;99.90
25058;DHT22;13057;50.978;11.034;2022-11-20T12:20:30;1.50;99.90
25058;DHT22;13057;50.978;11.034;2022-11-20T12:23:07;1.40;99.90
25058;DHT22;13057;50.978;11.034;2022-11-20T12:25:36;1.60;99.90
25058;DHT22;13057;50.978;11.034;2022-11-20T12:28:28;1.60;99.90
25058;DHT22;13057;50.978;11.034;2022-11-20T12:31:24;1.60;99.90
25058;DHT22;13057;50.978;11.034;2022-11-20T12:34:07;1.60;99.90
25058;DHT22;13057;50.978;11.034;2022-11-20T12:36:51;1.60;99.90
25058;DHT22;13057;50.978;11.034;2022-11-20T12:39:29;1.50;99.90
25058;DHT22;13057;50.978;11.034;2022-11-20T12:42:09;1.60;99.90
25058;DHT22;13057;50.978;11.034;2022-11-20T12:45:06;1.60;99.90
25058;DHT22;13057;50.978;11.034;2022-11-20T12:50:51;1.80;99.90
25058;DHT22;13057;50.978;11.034;2022-11-20T12:53:23;1.70;99.90
25058;DHT22;13057;50.978;11.034;2022-11-20T12:56:09;1.70;99.90
25058;DHT22;13057;50.978;11.034;2022-11-20T12:59:09;1.70;99.90
25058;DHT22;13057;50.978;11.034;2022-11-20T13:01:48;1.70;99.90
25058;DHT22;13057;50.978;11.034;2022-11-20T13:04:39;1.70;99.90
25058;DHT22;13057;50.978;11.034;2022-11-20T13:07:13;1.80;99.90
25058;DHT22;13057;50.978;11.034;2022-11-20T13:09:43;1.80;99.90
25058;DHT22;13057;50.978;11.034;2022-11-20T13:12:30;1.80;99.90
25058;DHT22;13057;50.978;11.034;2022-11-20T13:15:18;1.80;99.90
25058;DHT22;13057;50.978;11.034;2022-11-20T13:17:55;1.80;99.90
25058;DHT22;13057;50.978;11.034;2022-11-20T13:20:23;1.80;99.90
25058;DHT22;13057;50.978;11.034;2022-11-20T13:22:54;1.70;99.90
25058;DHT22;13057;50.978;11.034;2022-11-20T13:25:31;1.70;99.90
25058;DHT22;13057;50.978;11.034;2022-11-20T13:27:59;1.70;99.90
25058;DHT22;13057;50.978;11.034;2022-11-20T13:30:28;1.70;99.90
25058;DHT22;13057;50.978;11.034;2022-11-20T13:33:06;1.70;99.90
25058;DHT22;13057;50.978;11.034;2022-11-20T13:35:36;1.70;99.90
25058;DHT22;13057;50.978;11.034;2022-11-20T13:38:05;1.70;99.90
25058;DHT22;13057;50.978;11.034;2022-11-20T13:40:32;1.70;99.90
25058;DHT22;13057;50.978;11.034;2022-11-20T13:43:26;1.70;99.90
25058;DHT22;13057;50.978;11.034;2022-11-20T13:46:00;1.70;99.90
25058;DHT22;13057;50.978;11.034;2022-11-20T13:48:30;1.70;99.90
25058;DHT22;13057;50.978;11.034;2022-11-20T13:51:23;1.70;99.90
25058;DHT22;13057;50.978;11.034;2022-11-20T13:54:09;1.70;99.90
25058;DHT22;13057;50.978;11.034;2022-11-20T13:56:53;1.70;99.90
25058;DHT22;13057;50.978;11.034;2022-11-20T13:59:35;1.70;99.90
25058;DHT22;13057;50.978;11.034;2022-11-20T14:02:11;1.70;99.90
25058;DHT22;13057;50.978;11.034;2022-11-20T14:04:42;1.70;99.90
25058;DHT22;13057;50.978;11.034;2022-11-20T14:07:09;1.80;99.90
25058;DHT22;13057;50.978;11.034;2022-11-20T14:09:35;1.70;99.90
25058;DHT22;13057;50.978;11.034;2022-11-20T14:12:03;1.60;99.90
25058;DHT22;13057;50.978;11.034;2022-11-20T14:14:30;1.60;99.90
25058;DHT22;13057;50.978;11.034;2022-11-20T14:17:07;1.50;99.90
25058;DHT22;13057;50.978;11.034;2022-11-20T14:19:34;1.50;99.90
25058;DHT22;13057;50.978;11.034;2022-11-20T14:22:18;1.50;99.90
25058;DHT22;13057;50.978;11.034;2022-11-20T14:24:45;1.40;99.90
25058;DHT22;13057;50.978;11.034;2022-11-20T14:27:14;1.40;99.90
25058;DHT22;13057;50.978;11.034;2022-11-20T14:29:41;1.40;99.90
25058;DHT22;13057;50.978;11.034;2022-11-20T14:32:09;1.40;99.90
25058;DHT22;13057;50.978;11.034;2022-11-20T14:34:39;1.40;99.90
25058;DHT22;13057;50.978;11.034;2022-11-20T14:37:11;1.40;99.90
25058;DHT22;13057;50.978;11.034;2022-11-20T14:39:41;1.40;99.90
25058;DHT22;13057;50.978;11.034;2022-11-20T14:42:17;1.40;99.90
25058;DHT22;13057;50.978;11.034;2022-11-20T14:44:44;1.40;99.90
25058;DHT22;13057;50.978;11.034;2022-11-20T14:47:12;1.50;99.90
25058;DHT22;13057;50.978;11.034;2022-11-20T14:49:40;1.50;99.90
25058;DHT22;13057;50.978;11.034;2022-11-20T14:52:19;1.50;99.90
25058;DHT22;13057;50.978;11.034;2022-11-20T14:54:47;1.50;99.90
25058;DHT22;13057;50.978;11.034;2022-11-20T14:57:26;1.50;99.90
25058;DHT22;13057;50.978;11.034;2022-11-20T15:00:19;1.50;99.90
25058;DHT22;13057;50.978;11.034;2022-11-20T15:02:48;1.40;99.90
25058;DHT22;13057;50.978;11.034;2022-11-20T15:05:15;1.40;99.90
25058;DHT22;13057;50.978;11.034;2022-11-20T15:07:44;1.50;99.90
25058;DHT22;13057;50.978;11.034;2022-11-20T15:10:21;1.40;99.90
25058;DHT22;13057;50.978;11.034;2022-11-20T15:12:53;1.40;99.90
25058;DHT22;13057;50.978;11.034;2022-11-20T15:15:24;1.40;99.90
25058;DHT22;13057;50.978;11.034;2022-11-20T15:17:51;1.40;99.90
25058;DHT22;13057;50.978;11.034;2022-11-20T15:20:17;1.40;99.90
25058;DHT22;13057;50.978;11.034;2022-11-20T15:22:43;1.40;99.90
25058;DHT22;13057;50.978;11.034;2022-11-20T15:25:14;1.40;99.90
25058;DHT22;13057;50.978;11.034;2022-11-20T15:27:40;1.30;99.90
25058;DHT22;13057;50.978;11.034;2022-11-20T15:30:14;1.40;99.90
25058;DHT22;13057;50.978;11.034;2022-11-20T15:32:41;1.40;99.90
25058;DHT22;13057;50.978;11.034;2022-11-20T15:35:08;1.40;99.90
25058;DHT22;13057;50.978;11.034;2022-11-20T15:37:35;1.40;99.90
25058;DHT22;13057;50.978;11.034;2022-11-20T15:40:00;1.40;99.90
25058;DHT22;13057;50.978;11.034;2022-11-20T15:42:26;1.30;99.90
25058;DHT22;13057;50.978;11.034;2022-11-20T15:44:52;1.30;99.90
25058;DHT22;13057;50.978;11.034;2022-11-20T15:47:31;1.30;99.90
25058;DHT22;13057;50.978;11.034;2022-11-20T15:49:58;1.30;99.90
25058;DHT22;13057;50.978;11.034;2022-11-20T15:52:23;1.30;99.90